createdAt,value
2022-10-22T00:00:37.245Z,18.20
2022-10-22T00:01:37.209Z,17.40
2022-10-22T00:02:37.355Z,20.60
2022-10-22T00:03:37.182Z,19.20
2022-10-22T00:04:37.199Z,20.30
2022-10-22T00:05:37.171Z,20.60
2022-10-22T00:06:37.194Z,20.30
2022-10-22T00:07:37.314Z,20.90
2022-10-22T00:08:37.261Z,21.50
2022-10-22T00:09:37.156Z,18.70
2022-10-22T00:10:37.117Z,19.90
2022-10-22T00:11:37.132Z,18.40
2022-10-22T00:12:37.116Z,19.20
2022-10-22T00:13:37.151Z,16.90
2022-10-22T00:14:37.149Z,17.00
2022-10-22T00:15:37.086Z,18.80
2022-10-22T00:16:37.075Z,17.00
2022-10-22T00:17:37.429Z,17.90
2022-10-22T00:18:37.086Z,17.10
2022-10-22T00:19:37.056Z,17.40
2022-10-22T00:20:37.056Z,16.80
2022-10-22T00:21:37.056Z,17.90
2022-10-22T00:22:37.025Z,18.10
2022-10-22T00:23:37.021Z,18.10
2022-10-22T00:24:37.022Z,17.50
2022-10-22T00:25:37.008Z,18.10
2022-10-22T00:26:37.001Z,18.90
2022-10-22T00:27:37.074Z,20.10
2022-10-22T00:28:36.973Z,17.90
2022-10-22T00:29:36.979Z,16.00
2022-10-22T00:30:36.986Z,18.40
2022-10-22T00:31:36.958Z,17.90
2022-10-22T00:32:37.133Z,18.10
2022-10-22T00:33:36.946Z,18.20
2022-10-22T00:34:36.932Z,18.00
2022-10-22T00:35:36.954Z,18.10
2022-10-22T00:36:36.913Z,17.20
2022-10-22T00:37:36.913Z,17.60
2022-10-22T00:38:36.922Z,17.80
2022-10-22T00:39:36.903Z,22.00
2022-10-22T00:40:36.900Z,24.10
2022-10-22T00:41:36.897Z,21.00
2022-10-22T00:42:36.950Z,21.80
2022-10-22T00:43:36.879Z,19.20
2022-10-22T00:44:36.878Z,22.60
2022-10-22T00:45:36.874Z,20.90
2022-10-22T00:46:36.849Z,21.40
2022-10-22T00:47:36.844Z,20.60
2022-10-22T00:48:36.832Z,21.80
2022-10-22T00:49:36.883Z,19.80
2022-10-22T00:50:36.816Z,21.70
2022-10-22T00:51:36.815Z,19.30
2022-10-22T00:52:36.799Z,20.40
2022-10-22T00:53:36.787Z,21.50
2022-10-22T00:54:36.792Z,19.40
2022-10-22T00:55:36.806Z,21.00
2022-10-22T00:56:36.771Z,20.10
2022-10-22T00:57:36.765Z,18.60
2022-10-22T00:58:36.756Z,20.90
2022-10-22T00:59:36.769Z,19.60
2022-10-22T01:00:36.868Z,21.10
2022-10-22T01:01:36.737Z,23.40
2022-10-22T01:02:36.742Z,23.00
2022-10-22T01:03:36.745Z,22.50
2022-10-22T01:04:36.715Z,23.80
2022-10-22T01:05:36.704Z,24.90
2022-10-22T01:06:36.712Z,22.60
2022-10-22T01:07:36.685Z,19.80
2022-10-22T01:08:36.743Z,19.70
2022-10-22T01:09:36.696Z,20.30
2022-10-22T01:10:36.665Z,19.60
2022-10-22T01:11:36.662Z,19.10
2022-10-22T01:12:36.643Z,20.20
2022-10-22T01:13:36.660Z,20.60
2022-10-22T01:14:36.628Z,21.90
2022-10-22T01:15:36.648Z,22.60
2022-10-22T01:16:36.611Z,22.70
2022-10-22T01:17:36.607Z,22.20
2022-10-22T01:18:36.618Z,25.10
2022-10-22T01:19:36.612Z,22.20
2022-10-22T01:20:36.596Z,21.20
2022-10-22T01:21:36.579Z,21.50
2022-10-22T01:22:36.602Z,21.60
2022-10-22T01:23:36.561Z,19.50
2022-10-22T01:24:36.567Z,20.70
2022-10-22T01:25:36.570Z,20.80
2022-10-22T01:26:36.568Z,24.00
2022-10-22T01:27:36.533Z,22.60
2022-10-22T01:28:36.523Z,21.60
2022-10-22T01:29:36.522Z,19.80
2022-10-22T01:30:36.511Z,21.60
2022-10-22T01:31:36.502Z,21.50
2022-10-22T01:32:36.518Z,21.60
2022-10-22T01:33:36.486Z,20.90
2022-10-22T01:34:36.484Z,18.80
2022-10-22T01:35:36.481Z,19.50
2022-10-22T01:36:36.465Z,19.00
2022-10-22T01:37:36.461Z,18.50
2022-10-22T01:38:36.470Z,17.10
2022-10-22T01:39:36.449Z,18.30
2022-10-22T01:40:36.437Z,16.90
2022-10-22T01:41:36.425Z,18.10
2022-10-22T01:42:36.422Z,18.40
2022-10-22T01:43:36.426Z,19.60
2022-10-22T01:45:36.398Z,17.80
2022-10-22T01:46:36.382Z,18.50
2022-10-22T01:47:36.374Z,18.50
2022-10-22T01:48:36.363Z,17.00
2022-10-22T01:49:36.385Z,16.30
2022-10-22T01:50:36.376Z,16.80
2022-10-22T01:51:36.349Z,17.00
2022-10-22T01:52:36.345Z,18.90
2022-10-22T01:53:36.369Z,19.50
2022-10-22T01:54:36.350Z,21.10
2022-10-22T01:55:36.334Z,20.20
2022-10-22T01:56:36.315Z,21.10
2022-10-22T01:57:36.314Z,22.20
2022-10-22T01:58:36.288Z,22.50
2022-10-22T01:59:36.303Z,25.10
2022-10-22T02:00:36.312Z,21.20
2022-10-22T02:01:36.277Z,27.10
2022-10-22T02:02:36.328Z,22.50
2022-10-22T02:03:36.259Z,23.30
2022-10-22T02:04:36.246Z,23.80
2022-10-22T02:05:36.266Z,23.80
2022-10-22T02:06:36.252Z,21.60
2022-10-22T02:07:36.230Z,23.70
2022-10-22T02:08:36.275Z,22.70
2022-10-22T02:09:36.208Z,20.90
2022-10-22T02:10:36.199Z,26.00
2022-10-22T02:11:36.198Z,21.50
2022-10-22T02:12:36.178Z,24.00
2022-10-22T02:13:36.181Z,24.30
2022-10-22T02:14:36.182Z,23.70
2022-10-22T02:15:36.162Z,24.20
2022-10-22T02:16:36.162Z,24.50
2022-10-22T02:17:36.149Z,24.40
2022-10-22T02:18:38.763Z,22.00
2022-10-22T02:19:36.170Z,22.10
2022-10-22T02:20:36.125Z,20.10
2022-10-22T02:21:36.115Z,22.20
2022-10-22T02:22:36.127Z,21.40
2022-10-22T02:23:36.102Z,23.50
2022-10-22T02:24:36.096Z,24.10
2022-10-22T02:25:36.085Z,23.60
2022-10-22T02:26:36.076Z,25.20
2022-10-22T02:27:36.091Z,23.80
2022-10-22T02:28:36.061Z,22.20
2022-10-22T02:29:36.053Z,20.60
2022-10-22T02:30:36.042Z,21.40
2022-10-22T02:31:36.036Z,20.40
2022-10-22T02:32:36.028Z,22.00
2022-10-22T02:33:36.040Z,20.70
2022-10-22T02:34:36.021Z,24.10
2022-10-22T02:35:36.009Z,24.60
2022-10-22T02:36:35.997Z,26.40
2022-10-22T02:37:36.014Z,22.80
2022-10-22T02:38:35.985Z,24.10
2022-10-22T02:39:35.990Z,22.70
2022-10-22T02:40:35.959Z,22.90
2022-10-22T02:41:35.980Z,23.80
2022-10-22T02:42:35.966Z,23.40
2022-10-22T02:43:35.941Z,22.20
2022-10-22T02:44:35.949Z,27.50
2022-10-22T02:45:35.929Z,26.60
2022-10-22T02:46:35.950Z,26.10
2022-10-22T02:47:35.925Z,28.80
2022-10-22T02:48:35.906Z,25.50
2022-10-22T02:49:35.900Z,25.20
2022-10-22T02:50:35.884Z,26.10
2022-10-22T02:51:35.882Z,27.00
2022-10-22T02:52:35.899Z,24.00
2022-10-22T02:53:35.873Z,23.30
2022-10-22T02:54:35.856Z,25.50
2022-10-22T02:55:35.849Z,24.80
2022-10-22T02:56:35.859Z,25.10
2022-10-22T02:57:35.832Z,25.50
2022-10-22T02:58:35.821Z,22.80
2022-10-22T02:59:35.815Z,25.60
2022-10-22T03:00:35.836Z,28.60
2022-10-22T03:01:35.811Z,23.20
2022-10-22T03:02:35.817Z,29.80
2022-10-22T03:03:35.789Z,30.60
2022-10-22T03:04:35.805Z,28.30
2022-10-22T03:05:35.777Z,31.40
2022-10-22T03:06:35.773Z,25.00
2022-10-22T03:07:35.755Z,25.30
2022-10-22T03:08:35.795Z,23.60
2022-10-22T03:09:35.746Z,23.60
2022-10-22T03:10:35.761Z,19.50
2022-10-22T03:11:35.747Z,22.30
2022-10-22T03:12:35.725Z,23.10
2022-10-22T03:13:35.738Z,21.70
2022-10-22T03:14:35.712Z,23.20
2022-10-22T03:15:35.727Z,26.50
2022-10-22T03:16:35.696Z,27.10
2022-10-22T03:17:35.694Z,24.10
2022-10-22T03:18:35.678Z,26.90
2022-10-22T03:19:35.673Z,25.80
2022-10-22T03:20:35.682Z,25.60
2022-10-22T03:21:36.338Z,23.50
2022-10-22T03:22:42.669Z,24.80
2022-10-22T03:23:35.645Z,24.00
2022-10-22T03:24:35.635Z,26.30
2022-10-22T03:25:35.647Z,24.80
2022-10-22T03:26:35.612Z,23.40
2022-10-22T03:27:35.633Z,23.00
2022-10-22T03:28:35.601Z,20.90
2022-10-22T03:29:35.590Z,23.70
2022-10-22T03:30:35.603Z,23.90
2022-10-22T03:31:35.571Z,20.20
2022-10-22T03:32:35.561Z,23.20
2022-10-22T03:33:35.557Z,23.80
2022-10-22T03:34:35.551Z,22.90
2022-10-22T03:35:35.564Z,21.20
2022-10-22T03:36:35.535Z,22.30
2022-10-22T03:37:35.525Z,21.70
2022-10-22T03:38:35.526Z,20.70
2022-10-22T03:39:35.517Z,19.30
2022-10-22T03:40:35.505Z,20.30
2022-10-22T03:41:35.521Z,19.70
2022-10-22T03:42:35.483Z,20.30
2022-10-22T03:43:35.481Z,17.40
2022-10-22T03:44:35.469Z,17.30
2022-10-22T03:45:35.574Z,19.90
2022-10-22T03:46:35.513Z,22.00
2022-10-22T03:47:35.446Z,22.10
2022-10-22T03:48:35.443Z,20.70
2022-10-22T03:49:35.440Z,20.80
2022-10-22T03:50:35.432Z,20.60
2022-10-22T03:51:35.424Z,16.90
2022-10-22T03:52:35.434Z,16.70
2022-10-22T03:53:35.409Z,17.20
2022-10-22T03:54:35.452Z,16.30
2022-10-22T03:55:35.385Z,16.70
2022-10-22T03:56:35.406Z,18.10
2022-10-22T03:57:35.371Z,16.80
2022-10-22T03:58:35.386Z,16.80
2022-10-22T03:59:35.357Z,15.80
2022-10-22T04:00:35.364Z,15.20
2022-10-22T04:01:35.415Z,14.50
2022-10-22T04:02:35.327Z,15.90
2022-10-22T04:03:35.322Z,14.90
2022-10-22T04:04:35.341Z,15.10
2022-10-22T04:05:35.335Z,14.70
2022-10-22T04:06:35.296Z,15.90
2022-10-22T04:07:35.303Z,15.50
2022-10-22T04:08:35.320Z,14.60
2022-10-22T04:09:35.278Z,15.00
2022-10-22T04:10:35.268Z,14.90
2022-10-22T04:11:35.285Z,15.40
2022-10-22T04:12:35.244Z,15.20
2022-10-22T04:13:35.251Z,15.20
2022-10-22T04:14:35.236Z,14.90
2022-10-22T04:15:35.262Z,15.80
2022-10-22T04:16:35.227Z,14.30
2022-10-22T04:17:35.235Z,14.60
2022-10-22T04:18:35.203Z,14.30
2022-10-22T04:19:35.200Z,14.90
2022-10-22T04:20:35.197Z,13.80
2022-10-22T04:21:35.192Z,15.30
2022-10-22T04:22:35.172Z,13.50
2022-10-22T04:23:35.184Z,13.30
2022-10-22T04:24:35.155Z,11.50
2022-10-22T04:25:35.147Z,11.90
2022-10-22T04:26:35.138Z,11.20
2022-10-22T04:27:35.148Z,9.90
2022-10-22T04:28:35.121Z,8.70
2022-10-22T04:29:35.141Z,8.60
2022-10-22T04:30:35.123Z,7.40
2022-10-22T04:31:35.094Z,6.30
2022-10-22T04:32:35.098Z,5.80
2022-10-22T04:33:35.104Z,5.60
2022-10-22T04:34:35.082Z,6.00
2022-10-22T04:35:35.079Z,5.50
2022-10-22T04:36:35.110Z,5.80
2022-10-22T04:37:35.056Z,5.70
2022-10-22T04:38:35.045Z,5.90
2022-10-22T04:39:35.036Z,5.30
2022-10-22T04:40:35.029Z,5.70
2022-10-22T04:41:35.046Z,5.90
2022-10-22T04:42:35.014Z,5.70
2022-10-22T04:43:35.011Z,5.70
2022-10-22T04:44:35.000Z,6.30
2022-10-22T04:45:34.994Z,6.80
2022-10-22T04:46:34.982Z,6.50
2022-10-22T04:47:34.995Z,7.30
2022-10-22T04:48:34.967Z,6.60
2022-10-22T04:49:34.965Z,7.50
2022-10-22T04:50:34.968Z,7.50
2022-10-22T04:51:34.939Z,7.20
2022-10-22T04:52:34.937Z,6.90
2022-10-22T04:53:34.930Z,6.20
2022-10-22T04:54:34.936Z,6.00
2022-10-22T04:55:34.926Z,5.70
2022-10-22T04:56:34.904Z,4.90
2022-10-22T04:57:34.898Z,4.10
2022-10-22T04:58:34.887Z,3.10
2022-10-22T04:59:34.888Z,3.30
2022-10-22T05:00:34.910Z,3.40
2022-10-22T05:01:37.066Z,2.50
2022-10-22T05:02:35.866Z,2.70
2022-10-22T05:03:34.864Z,2.60
2022-10-22T05:04:34.863Z,2.50
2022-10-22T05:05:34.845Z,2.80
2022-10-22T05:06:34.863Z,2.30
2022-10-22T05:07:34.828Z,2.10
2022-10-22T05:08:34.869Z,2.10
2022-10-22T05:09:34.815Z,2.10
2022-10-22T05:10:34.809Z,1.90
2022-10-22T05:11:34.794Z,2.10
2022-10-22T05:12:34.785Z,2.20
2022-10-22T05:13:34.783Z,1.60
2022-10-22T05:14:34.795Z,1.70
2022-10-22T05:15:34.782Z,2.00
2022-10-22T05:16:34.892Z,1.80
2022-10-22T05:17:34.773Z,1.80
2022-10-22T05:18:34.761Z,1.70
2022-10-22T05:19:34.746Z,1.60
2022-10-22T05:20:34.742Z,1.70
2022-10-22T05:21:34.738Z,1.60
2022-10-22T05:22:34.734Z,1.60
2022-10-22T05:23:34.719Z,1.80
2022-10-22T05:24:34.706Z,1.80
2022-10-22T05:25:34.706Z,2.10
2022-10-22T05:26:34.690Z,2.10
2022-10-22T05:27:34.704Z,1.70
2022-10-22T05:28:34.680Z,1.70
2022-10-22T05:29:34.677Z,1.80
2022-10-22T05:30:34.676Z,2.00
2022-10-22T05:31:34.664Z,1.90
2022-10-22T05:32:34.698Z,2.10
2022-10-22T05:33:34.673Z,2.20
2022-10-22T05:34:34.642Z,2.10
2022-10-22T05:35:34.640Z,2.00
2022-10-22T05:36:34.624Z,1.90
2022-10-22T05:37:34.623Z,2.30
2022-10-22T05:38:34.613Z,1.90
2022-10-22T05:39:34.627Z,1.90
2022-10-22T05:40:34.595Z,1.80
2022-10-22T05:41:34.601Z,1.60
2022-10-22T05:42:34.582Z,1.60
2022-10-22T05:43:34.569Z,2.00
2022-10-22T05:44:34.564Z,2.00
2022-10-22T05:45:34.580Z,2.30
2022-10-22T05:46:34.551Z,2.30
2022-10-22T05:47:34.542Z,2.20
2022-10-22T05:48:34.569Z,2.50
2022-10-22T05:49:34.530Z,2.30
2022-10-22T05:50:34.520Z,2.70
2022-10-22T05:51:34.516Z,2.30
2022-10-22T05:52:34.500Z,2.40
2022-10-22T05:53:34.523Z,2.00
2022-10-22T05:54:34.490Z,2.10
2022-10-22T05:55:34.482Z,2.00
2022-10-22T05:56:34.464Z,2.50
2022-10-22T05:57:34.469Z,2.80
2022-10-22T05:58:34.458Z,2.50
2022-10-22T05:59:34.492Z,2.80
2022-10-22T06:00:34.452Z,3.30
2022-10-22T06:01:34.440Z,4.20
2022-10-22T06:02:34.463Z,3.20
2022-10-22T06:03:34.427Z,2.90
2022-10-22T06:04:34.412Z,2.90
2022-10-22T06:05:34.430Z,2.50
2022-10-22T06:06:34.399Z,2.80
2022-10-22T06:07:34.390Z,3.80
2022-10-22T06:08:34.425Z,3.80
2022-10-22T06:09:34.435Z,4.50
2022-10-22T06:10:34.384Z,4.80
2022-10-22T06:11:35.327Z,5.30
2022-10-22T06:12:34.355Z,4.20
2022-10-22T06:13:34.340Z,3.50
2022-10-22T06:14:34.356Z,3.30
2022-10-22T06:15:34.351Z,3.50
2022-10-22T06:16:34.320Z,4.50
2022-10-22T06:17:34.357Z,4.40
2022-10-22T06:18:34.305Z,3.70
2022-10-22T06:19:34.303Z,3.20
2022-10-22T06:20:34.304Z,3.10
2022-10-22T06:21:34.293Z,3.10
2022-10-22T06:22:34.273Z,2.50
2022-10-22T06:23:34.344Z,2.60
2022-10-22T06:24:34.268Z,2.60
2022-10-22T06:25:34.264Z,2.90
2022-10-22T06:26:34.249Z,2.30
2022-10-22T06:27:34.248Z,1.90
2022-10-22T06:28:34.240Z,1.70
2022-10-22T06:29:34.247Z,1.80
2022-10-22T06:30:34.219Z,1.90
2022-10-22T06:31:34.217Z,1.70
2022-10-22T06:32:34.195Z,1.70
2022-10-22T06:33:34.192Z,1.60
2022-10-22T06:34:34.182Z,1.40
2022-10-22T06:35:34.203Z,1.80
2022-10-22T06:36:34.228Z,1.70
2022-10-22T06:37:34.172Z,1.50
2022-10-22T06:38:34.158Z,1.40
2022-10-22T06:39:34.148Z,1.80
2022-10-22T06:40:34.162Z,1.40
2022-10-22T06:41:34.176Z,1.90
2022-10-22T06:42:34.132Z,1.40
2022-10-22T06:43:34.144Z,1.40
2022-10-22T06:44:34.131Z,1.50
2022-10-22T06:45:34.107Z,1.50
2022-10-22T06:46:34.120Z,1.30
2022-10-22T06:47:34.101Z,1.30
2022-10-22T06:48:34.084Z,1.30
2022-10-22T06:49:34.090Z,1.20
2022-10-22T06:50:34.064Z,1.10
2022-10-22T06:51:34.059Z,1.40
2022-10-22T06:52:34.084Z,1.30
2022-10-22T06:53:34.058Z,1.30
2022-10-22T06:54:34.029Z,1.30
2022-10-22T06:55:34.031Z,1.20
2022-10-22T06:56:34.030Z,1.50
2022-10-22T06:57:34.014Z,1.60
2022-10-22T06:58:34.045Z,1.60
2022-10-22T06:59:34.015Z,1.50
2022-10-22T07:01:34.036Z,1.50
2022-10-22T07:02:33.980Z,1.30
2022-10-22T07:03:33.975Z,1.40
2022-10-22T07:04:33.991Z,1.60
2022-10-22T07:05:33.959Z,1.70
2022-10-22T07:06:33.945Z,1.30
2022-10-22T07:07:33.940Z,1.20
2022-10-22T07:08:33.965Z,1.50
2022-10-22T07:09:33.991Z,1.50
2022-10-22T07:10:33.919Z,1.20
2022-10-22T07:11:33.928Z,1.60
2022-10-22T07:12:33.902Z,1.40
2022-10-22T07:13:33.891Z,1.50
2022-10-22T07:14:33.906Z,1.50
2022-10-22T07:15:33.882Z,1.40
2022-10-22T07:16:33.894Z,1.30
2022-10-22T07:17:33.947Z,1.50
2022-10-22T07:18:33.846Z,1.70
2022-10-22T07:19:33.847Z,1.90
2022-10-22T07:20:33.830Z,1.80
2022-10-22T07:21:33.822Z,1.50
2022-10-22T07:22:33.816Z,1.40
2022-10-22T07:23:33.817Z,1.60
2022-10-22T07:24:33.788Z,1.80
2022-10-22T07:25:33.802Z,1.50
2022-10-22T07:26:33.780Z,1.50
2022-10-22T07:27:33.772Z,1.30
2022-10-22T07:28:33.755Z,1.40
2022-10-22T07:29:33.751Z,1.40
2022-10-22T07:30:33.758Z,1.40
2022-10-22T07:31:33.739Z,1.40
2022-10-22T07:32:33.756Z,1.30
2022-10-22T07:33:33.728Z,1.50
2022-10-22T07:34:33.710Z,1.40
2022-10-22T07:35:33.704Z,1.30
2022-10-22T07:36:33.699Z,1.40
2022-10-22T07:37:33.704Z,1.30
2022-10-22T07:38:33.698Z,1.30
2022-10-22T07:39:33.700Z,1.50
2022-10-22T07:40:33.667Z,1.10
2022-10-22T07:41:33.653Z,1.00
2022-10-22T07:42:33.658Z,1.20
2022-10-22T07:43:33.654Z,1.00
2022-10-22T07:44:33.641Z,1.00
2022-10-22T07:45:33.672Z,1.00
2022-10-22T07:46:33.615Z,1.00
2022-10-22T07:47:33.612Z,1.20
2022-10-22T07:48:33.610Z,1.30
2022-10-22T07:49:33.600Z,1.30
2022-10-22T07:50:33.650Z,1.50
2022-10-22T07:51:33.614Z,1.60
2022-10-22T07:52:33.574Z,1.50
2022-10-22T07:53:33.575Z,1.60
2022-10-22T07:54:33.558Z,1.70
2022-10-22T07:55:33.548Z,2.10
2022-10-22T07:56:33.534Z,2.30
2022-10-22T07:57:33.559Z,2.40
2022-10-22T07:58:33.524Z,2.80
2022-10-22T07:59:33.516Z,3.10
2022-10-22T08:00:33.528Z,3.00
2022-10-22T08:01:33.546Z,2.60
2022-10-22T08:02:33.496Z,2.70
2022-10-22T08:03:33.478Z,3.40
2022-10-22T08:04:33.467Z,3.50
2022-10-22T08:05:33.478Z,3.20
2022-10-22T08:06:33.514Z,3.30
2022-10-22T08:07:33.456Z,3.00
2022-10-22T08:08:33.544Z,2.80
2022-10-22T08:09:33.452Z,2.80
2022-10-22T08:10:33.482Z,2.60
2022-10-22T08:11:33.438Z,2.80
2022-10-22T08:12:33.411Z,2.90
2022-10-22T08:13:33.445Z,2.80
2022-10-22T08:14:33.404Z,3.10
2022-10-22T08:15:33.428Z,2.90
2022-10-22T08:16:33.385Z,3.30
2022-10-22T08:17:33.375Z,3.60
2022-10-22T08:18:33.373Z,3.80
2022-10-22T08:19:33.390Z,3.70
2022-10-22T08:20:33.341Z,3.40
2022-10-22T08:21:33.341Z,3.30
2022-10-22T08:22:33.329Z,3.40
2022-10-22T08:23:33.346Z,3.20
2022-10-22T08:24:33.315Z,3.40
2022-10-22T08:25:33.302Z,3.70
2022-10-22T08:26:33.293Z,3.70
2022-10-22T08:27:33.295Z,4.10
2022-10-22T08:28:33.282Z,3.70
2022-10-22T08:29:33.294Z,4.00
2022-10-22T08:30:33.260Z,3.50
2022-10-22T08:31:33.275Z,3.60
2022-10-22T08:32:33.253Z,3.40
2022-10-22T08:33:33.240Z,3.70
2022-10-22T08:34:33.228Z,3.50
2022-10-22T08:35:33.243Z,3.10
2022-10-22T08:36:33.208Z,3.30
2022-10-22T08:37:33.206Z,3.60
2022-10-22T08:38:33.196Z,3.60
2022-10-22T08:39:33.203Z,3.30
2022-10-22T08:40:33.177Z,3.30
2022-10-22T08:41:33.194Z,2.90
2022-10-22T08:42:33.160Z,2.90
2022-10-22T08:43:33.163Z,2.90
2022-10-22T08:44:33.139Z,2.90
2022-10-22T08:45:33.139Z,3.30
2022-10-22T08:46:33.129Z,3.40
2022-10-22T08:47:33.143Z,3.10
2022-10-22T08:48:33.111Z,3.30
2022-10-22T08:49:35.092Z,2.70
2022-10-22T08:50:33.088Z,3.60
2022-10-22T08:51:33.105Z,4.20
2022-10-22T08:52:33.070Z,3.90
2022-10-22T08:53:33.073Z,3.80
2022-10-22T08:54:33.061Z,3.20
2022-10-22T08:55:36.521Z,3.80
2022-10-22T08:56:33.044Z,3.80
2022-10-22T08:57:33.056Z,4.50
2022-10-22T08:58:33.037Z,4.70
2022-10-22T08:59:33.017Z,4.70
2022-10-22T09:00:33.036Z,4.40
2022-10-22T09:01:33.002Z,4.50
2022-10-22T09:02:32.983Z,3.80
2022-10-22T09:03:32.989Z,3.20
2022-10-22T09:04:32.991Z,3.60
2022-10-22T09:05:32.993Z,4.10
2022-10-22T09:06:32.954Z,3.40
2022-10-22T09:07:32.957Z,3.40
2022-10-22T09:08:32.952Z,3.50
2022-10-22T09:09:32.944Z,3.60
2022-10-22T09:10:32.940Z,3.40
2022-10-22T09:11:32.942Z,3.20
2022-10-22T09:12:32.919Z,3.50
2022-10-22T09:13:32.893Z,3.60
2022-10-22T09:14:32.895Z,3.50
2022-10-22T09:15:32.876Z,3.50
2022-10-22T09:16:32.891Z,3.80
2022-10-22T09:17:32.870Z,3.80
2022-10-22T09:18:32.846Z,3.80
2022-10-22T09:19:32.860Z,4.00
2022-10-22T09:20:32.827Z,4.10
2022-10-22T09:21:32.818Z,4.20
2022-10-22T09:22:39.862Z,4.00
2022-10-22T09:23:32.822Z,3.90
2022-10-22T09:24:33.235Z,4.60
2022-10-22T09:25:32.817Z,4.70
2022-10-22T09:26:32.791Z,4.20
2022-10-22T09:27:32.780Z,4.30
2022-10-22T09:28:32.767Z,4.30
2022-10-22T09:29:32.760Z,4.20
2022-10-22T09:30:32.799Z,4.20
2022-10-22T09:31:32.760Z,4.60
2022-10-22T09:32:32.728Z,4.30
2022-10-22T09:33:32.732Z,4.40
2022-10-22T09:34:32.720Z,4.60
2022-10-22T09:35:32.722Z,4.30
2022-10-22T09:36:32.699Z,4.50
2022-10-22T09:37:32.714Z,5.00
2022-10-22T09:38:32.697Z,4.40
2022-10-22T09:39:32.681Z,5.00
2022-10-22T09:40:32.666Z,4.70
2022-10-22T09:41:32.658Z,4.40
2022-10-22T09:42:32.637Z,4.50
2022-10-22T09:43:32.633Z,4.60
2022-10-22T09:44:32.668Z,4.60
2022-10-22T09:45:32.628Z,4.40
2022-10-22T09:46:32.612Z,4.80
2022-10-22T09:47:42.814Z,4.60
2022-10-22T09:48:32.631Z,4.80
2022-10-22T09:49:32.586Z,5.00
2022-10-22T09:50:32.591Z,4.90
2022-10-22T09:51:32.568Z,4.70
2022-10-22T09:52:32.565Z,5.30
2022-10-22T09:53:32.579Z,5.00
2022-10-22T09:54:32.549Z,4.60
2022-10-22T09:55:32.541Z,5.40
2022-10-22T09:56:32.524Z,4.70
2022-10-22T09:57:32.518Z,5.20
2022-10-22T09:58:32.533Z,5.40
2022-10-22T09:59:32.521Z,4.90
2022-10-22T10:00:32.494Z,4.60
2022-10-22T10:01:32.486Z,4.90
2022-10-22T10:02:39.772Z,5.30
2022-10-22T10:03:33.466Z,5.50
2022-10-22T10:04:32.461Z,5.40
2022-10-22T10:05:32.472Z,4.90
2022-10-22T10:06:32.443Z,5.00
2022-10-22T10:07:32.433Z,5.30
2022-10-22T10:08:32.503Z,5.20
2022-10-22T10:09:32.425Z,4.70
2022-10-22T10:10:32.425Z,4.50
2022-10-22T10:11:32.418Z,4.10
2022-10-22T10:12:32.434Z,4.10
2022-10-22T10:13:32.385Z,4.20
2022-10-22T10:14:32.367Z,4.10
2022-10-22T10:15:32.398Z,4.20
2022-10-22T10:16:32.379Z,3.80
2022-10-22T10:17:32.356Z,3.80
2022-10-22T10:18:32.337Z,4.10
2022-10-22T10:19:32.338Z,3.80
2022-10-22T10:20:32.366Z,4.10
2022-10-22T10:21:32.340Z,3.80
2022-10-22T10:22:32.318Z,4.50
2022-10-22T10:23:32.318Z,5.40
2022-10-22T10:24:32.303Z,4.60
2022-10-22T10:25:32.285Z,5.10
2022-10-22T10:26:32.270Z,4.80
2022-10-22T10:27:32.288Z,4.80
2022-10-22T10:28:32.259Z,4.90
2022-10-22T10:29:32.298Z,4.30
2022-10-22T10:30:32.252Z,4.00
2022-10-22T10:31:32.241Z,2.80
2022-10-22T10:32:32.228Z,2.90
2022-10-22T10:33:32.244Z,3.40
2022-10-22T10:34:32.199Z,3.40
2022-10-22T10:35:32.191Z,3.10
2022-10-22T10:36:32.188Z,2.90
2022-10-22T10:37:32.175Z,3.10
2022-10-22T10:38:32.176Z,2.70
2022-10-22T10:39:32.187Z,2.80
2022-10-22T10:40:32.154Z,2.90
2022-10-22T10:41:32.144Z,2.80
2022-10-22T10:42:32.136Z,2.40
2022-10-22T10:43:32.125Z,2.40
2022-10-22T10:44:32.161Z,2.80
2022-10-22T10:45:32.122Z,2.70
2022-10-22T10:46:34.909Z,2.80
2022-10-22T10:47:32.094Z,2.50
2022-10-22T10:48:32.087Z,2.60
2022-10-22T10:49:32.086Z,2.40
2022-10-22T10:50:32.060Z,2.80
2022-10-22T10:51:32.067Z,2.50
2022-10-22T10:52:32.068Z,2.60
2022-10-22T10:53:32.062Z,2.70
2022-10-22T10:54:32.065Z,2.30
2022-10-22T10:55:32.018Z,2.70
2022-10-22T10:56:34.429Z,2.30
2022-10-22T10:57:32.028Z,2.40
2022-10-22T10:58:32.015Z,2.30
2022-10-22T10:59:31.984Z,2.60
2022-10-22T11:00:31.991Z,2.10
2022-10-22T11:01:32.051Z,2.20
2022-10-22T11:02:31.963Z,2.20
2022-10-22T11:03:31.957Z,1.90
2022-10-22T11:04:31.949Z,2.10
2022-10-22T11:05:31.954Z,2.40
2022-10-22T11:06:31.932Z,2.10
2022-10-22T11:07:35.195Z,2.10
2022-10-22T11:08:31.961Z,2.00
2022-10-22T11:09:31.941Z,2.10
2022-10-22T11:10:31.921Z,1.90
2022-10-22T11:11:31.902Z,1.80
2022-10-22T11:12:31.880Z,2.10
2022-10-22T11:13:31.881Z,1.90
2022-10-22T11:14:31.871Z,2.10
2022-10-22T11:15:31.863Z,2.00
2022-10-22T11:16:31.875Z,2.00
2022-10-22T11:17:31.847Z,1.70
2022-10-22T11:18:31.839Z,1.60
2022-10-22T11:19:50.139Z,1.60
2022-10-22T11:20:32.832Z,1.60
2022-10-22T11:21:31.819Z,1.60
2022-10-22T11:22:31.803Z,1.60
2022-10-22T11:23:31.805Z,1.70
2022-10-22T11:24:31.813Z,1.90
2022-10-22T11:25:31.782Z,2.10
2022-10-22T11:26:31.787Z,1.90
2022-10-22T11:27:31.789Z,1.90
2022-10-22T11:28:31.763Z,1.80
2022-10-22T11:29:33.010Z,1.90
2022-10-22T11:30:31.741Z,2.20
2022-10-22T11:31:31.761Z,1.60
2022-10-22T11:32:31.732Z,1.80
2022-10-22T11:33:31.747Z,1.80
2022-10-22T11:34:34.128Z,2.00
2022-10-22T11:35:31.701Z,1.90
2022-10-22T11:37:31.697Z,1.70
2022-10-22T11:38:34.129Z,1.70
2022-10-22T11:39:31.699Z,1.40
2022-10-22T11:40:31.671Z,1.40
2022-10-22T11:41:31.662Z,1.60
2022-10-22T11:42:31.673Z,1.50
2022-10-22T11:43:31.647Z,1.40
2022-10-22T11:44:31.631Z,1.60
2022-10-22T11:45:31.662Z,1.50
2022-10-22T11:46:31.628Z,1.50
2022-10-22T11:47:31.615Z,1.40
2022-10-22T11:48:31.598Z,1.50
2022-10-22T11:49:31.595Z,1.50
2022-10-22T11:50:31.588Z,1.70
2022-10-22T11:51:31.587Z,1.80
2022-10-22T11:52:31.573Z,1.50
2022-10-22T11:53:31.576Z,1.90
2022-10-22T11:54:31.559Z,1.70
2022-10-22T11:55:31.554Z,1.60
2022-10-22T11:56:31.568Z,1.80
2022-10-22T11:57:31.563Z,1.70
2022-10-22T11:58:31.524Z,1.50
2022-10-22T11:59:31.517Z,1.50
2022-10-22T12:00:31.513Z,1.30
2022-10-22T12:01:31.554Z,1.40
2022-10-22T12:02:31.510Z,1.60
2022-10-22T12:03:31.492Z,1.30
2022-10-22T12:04:31.558Z,1.40
2022-10-22T12:05:31.469Z,1.40
2022-10-22T12:06:31.482Z,1.70
2022-10-22T12:07:31.456Z,1.90
2022-10-22T12:08:31.479Z,1.50
2022-10-22T12:09:31.454Z,1.60
2022-10-22T12:10:31.424Z,1.60
2022-10-22T12:11:31.418Z,1.50
2022-10-22T12:12:31.422Z,1.80
2022-10-22T12:13:31.404Z,1.90
2022-10-22T12:14:31.389Z,1.40
2022-10-22T12:15:31.392Z,1.50
2022-10-22T12:16:54.223Z,2.00
2022-10-22T12:17:32.386Z,1.70
2022-10-22T12:18:31.361Z,2.10
2022-10-22T12:19:31.382Z,2.10
2022-10-22T12:20:31.349Z,1.90
2022-10-22T12:21:31.337Z,1.90
2022-10-22T12:22:31.328Z,1.80
2022-10-22T12:23:31.347Z,2.10
2022-10-22T12:24:31.340Z,2.00
2022-10-22T12:25:35.505Z,2.20
2022-10-22T12:27:31.289Z,2.00
2022-10-22T12:28:31.280Z,2.20
2022-10-22T12:29:31.279Z,1.80
2022-10-22T12:30:31.279Z,2.10
2022-10-22T12:31:31.263Z,2.00
2022-10-22T12:32:31.250Z,2.00
2022-10-22T12:33:31.242Z,2.00
2022-10-22T12:34:31.256Z,2.90
2022-10-22T12:35:31.280Z,2.00
2022-10-22T12:36:31.222Z,1.60
2022-10-22T12:37:31.223Z,1.90
2022-10-22T12:38:31.207Z,2.00
2022-10-22T12:39:31.215Z,2.10
2022-10-22T12:40:31.180Z,2.10
2022-10-22T12:41:31.235Z,2.00
2022-10-22T12:42:31.169Z,2.00
2022-10-22T12:43:31.154Z,2.00
2022-10-22T12:44:31.154Z,2.30
2022-10-22T12:45:31.143Z,2.10
2022-10-22T12:46:31.132Z,2.20
2022-10-22T12:47:31.150Z,1.80
2022-10-22T12:48:31.119Z,2.00
2022-10-22T12:49:31.116Z,2.00
2022-10-22T12:50:31.106Z,1.80
2022-10-22T12:52:31.091Z,1.30
2022-10-22T12:53:31.082Z,1.40
2022-10-22T12:54:31.069Z,1.30
2022-10-22T12:55:31.067Z,1.20
2022-10-22T12:56:31.056Z,1.10
2022-10-22T12:57:31.072Z,1.10
2022-10-22T12:58:31.034Z,1.20
2022-10-22T12:59:31.053Z,0.90
2022-10-22T13:00:31.038Z,1.20
2022-10-22T13:01:31.013Z,1.10
2022-10-22T13:02:31.009Z,0.90
2022-10-22T13:03:30.995Z,1.30
2022-10-22T13:04:30.991Z,1.10
2022-10-22T13:05:31.006Z,1.40
2022-10-22T13:06:30.997Z,0.90
2022-10-22T13:07:31.955Z,1.50
2022-10-22T13:08:30.969Z,1.20
2022-10-22T13:09:33.036Z,1.10
2022-10-22T13:10:31.045Z,1.10
2022-10-22T13:11:30.927Z,1.50
2022-10-22T13:12:30.951Z,1.40
2022-10-22T13:13:30.923Z,1.10
2022-10-22T13:14:30.925Z,1.20